Stations météo

Publicité
Wasserkuppe, Allemagne (10544): Température de l'air & dewpoint: 15.01.2018 04:00:00 - 21.01.2018 04:00:00 (CET)Wasserkuppe, Allemagne (10544): Température de l'air 5cm & Température de l'air -5cm: 15.01.2018 04:00:00 - 21.01.2018 04:00:00 (CET)Wasserkuppe, Allemagne (10544): Température de l'air -20cm & Température de l'air -100cm: 15.01.2018 04:00:00 - 21.01.2018 04:00:00 (CET)Wasserkuppe, Allemagne (10544): Vitesse du vent & gusts: 15.01.2018 04:00:00 - 21.01.2018 04:00:00 (CET)Wasserkuppe, Allemagne (10544): Direction du vent: 15.01.2018 04:00:00 - 21.01.2018 04:00:00 (CET)Wasserkuppe, Allemagne (10544): visibility: 15.01.2018 04:00:00 - 21.01.2018 04:00:00 (CET)Wasserkuppe, Allemagne (10544): Ensoleillement: 15.01.2018 04:00:00 - 21.01.2018 04:00:00 (CET)Wasserkuppe, Allemagne (10544): Quantités de précipitations: 15.01.2018 04:00:00 - 21.01.2018 04:00:00 (CET)
Date & Time tt [°C] td [°C] tt 5cm [°C] tt -5cm [°C] tt -20cm [°C] tt -100cm [°C] ff [km/h] ff [knt] fx [km/h] fx [knt] dd vv [km] sd [min] rr [mm]
21.01.2018 04:00:00 -3,0 -3,8 -2,9 0,2 0,9 2,6 14 8 22 12 WNW 0,1 0 0,0
21.01.2018 03:00:00 -2,7 -3,3 -2,7 0,2 0,9 2,6 14 8 21 11 WNW 0,1 0 0,2
21.01.2018 02:00:00 -2,7 -3,4 -2,7 0,2 0,9 2,6 12 6 16 8 WNW 0,3 0 0,3
21.01.2018 01:00:00 -2,6 -3,0 -2,7 0,2 0,9 2,6 6 3 9 5 WNW 0,4 0 0,3
21.01.2018 00:00:00 -2,6 -3,0 -2,7 0,2 0,9 2,6 11 6 19 10 SSE 0,5 0 0,1
20.01.2018 23:00:00 -2,6 -3,1 -2,8 0,2 0,9 2,6 16 9 35 19 SE 3,0 0 0,1
20.01.2018 22:00:00 -2,6 -3,3 -2,7 0,2 0,9 2,6 27 15 38 20 SE 4,5 0 0,1
20.01.2018 21:00:00 -2,6 -3,2 -2,7 0,2 0,9 2,6 22 12 31 17 SE 2,2 0 0,1
20.01.2018 20:00:00 -2,7 -3,4 -2,7 0,2 0,9 2,6 25 13 36 20 SSE 2,5 0 0,1
20.01.2018 19:00:00 -2,5 -3,1 -2,5 0,2 0,9 2,6 29 15 38 21 SE 2,5 0 0,4
20.01.2018 18:00:00 -2,4 -3,0 -2,4 0,2 0,9 2,6 29 15 38 20 SSE 0,4 0 0,4
20.01.2018 17:00:00 -2,4 -3,0 -2,4 0,2 0,9 2,6 26 14 32 17 SE 0,7 0 0,8
20.01.2018 16:00:00 -2,3 -3,0 -2,1 0,2 0,9 2,6 21 11 31 17 S 0,4 0 0,3
20.01.2018 15:00:00 -2,3 -3,0 -2,0 0,2 0,9 2,6 23 12 34 19 S 0,4 0 0,1
20.01.2018 14:00:00 -2,5 -3,0 -2,3 0,2 0,9 2,6 27 15 38 20 SSW 0,4 0 0,1
20.01.2018 13:00:00 -2,8 -3,6 -2,5 0,2 0,9 2,6 23 13 37 20 SSW 0,4 0 0,0
20.01.2018 12:00:00 -2,9 -3,7 -2,8 0,2 0,9 2,6 29 15 41 22 SW 0,2 0 0,0
20.01.2018 11:00:00 -3,1 -3,9 -3,1 0,2 0,9 2,6 30 16 46 25 WSW 0,2 0 0,0
20.01.2018 10:00:00 -3,3 -4,2 -3,2 0,2 0,9 2,6 26 14 40 21 WSW 0,3 0 0,0
20.01.2018 09:00:00 -3,3 -4,1 -3,2 0,2 0,9 2,6 30 16 39 21 WSW 0,3 0 0,0
20.01.2018 08:00:00 -3,3 -4,0 -3,3 0,2 0,9 2,6 29 16 46 25 WSW 0,3 0 0,0
20.01.2018 07:00:00 -3,3 -4,0 -3,3 0,2 0,9 2,6 30 16 43 23 SW 0,1 0 0,0
20.01.2018 06:00:00 -3,3 -4,0 -3,3 0,2 0,9 2,6 31 17 43 23 WSW 0,1 0 0,0
20.01.2018 05:00:00 -3,2 -3,9 -3,2 0,2 0,9 2,6 29 16 40 21 SW 0,1 0 0,0
20.01.2018 04:00:00 -3,2 -3,9 -3,2 0,2 0,9 2,6 29 15 37 20 SW 0,1 0 0,0
20.01.2018 03:00:00 -3,3 -3,9 -3,3 0,2 0,9 2,6 27 14 44 24 WSW 0,2 0 0,0
20.01.2018 02:00:00 -3,2 -3,9 -3,2 0,2 0,9 2,6 32 17 48 26 WSW 0,2 0 0,2
20.01.2018 01:00:00 -3,2 -3,9 -3,2 0,2 0,9 2,6 24 13 43 23 WSW 0,2 0 -
20.01.2018 00:00:00 -3,0 -3,6 -3,0 0,2 0,9 2,6 32 17 46 25 WSW 0,3 0 0,0
19.01.2018 23:00:00 -2,9 -3,6 -2,9 0,2 0,9 2,6 34 18 42 23 SW 0,2 0 0,0
19.01.2018 22:00:00 -3,0 -3,7 -3,0 0,2 0,9 2,6 22 12 34 18 WSW 0,7 0 0,0
19.01.2018 21:00:00 -2,9 -3,5 -2,9 0,2 0,9 2,6 26 14 32 17 SW 0,2 0 0,0
19.01.2018 20:00:00 -3,4 -4,3 -3,4 0,2 0,9 2,6 24 13 31 17 SW 40 0 0,0
19.01.2018 19:00:00 -4,0 -5,0 -4,5 0,2 0,9 2,6 23 12 33 18 SW 40 0 0,0
19.01.2018 18:00:00 -3,5 -4,4 -4,0 0,2 0,9 2,6 25 13 34 18 WSW 20 0 0,0
19.01.2018 17:00:00 -2,7 -3,4 -2,7 0,2 0,9 2,6 24 13 35 19 WSW 3,5 0 0,7
19.01.2018 16:00:00 -2,6 -3,3 -2,5 0,2 0,9 2,6 22 12 39 21 WSW 0,5 0 0,2
19.01.2018 15:00:00 -2,4 -3,1 -2,4 0,2 0,9 2,6 26 14 41 22 W 0,1 0 0,1
19.01.2018 14:00:00 -2,4 -3,0 -2,3 0,2 0,9 2,6 25 14 49 26 WSW 0,1 0 0,6
19.01.2018 13:00:00 -2,5 -3,3 -2,4 0,2 0,9 2,6 27 15 51 27 W 0,1 0 1,2
19.01.2018 12:00:00 -2,5 -3,2 -2,4 0,2 0,9 2,6 34 18 58 31 W 0,1 0 0,6
19.01.2018 11:00:00 -2,4 -3,1 -2,3 0,2 0,9 2,6 29 15 51 28 W 0,1 0 0,5
19.01.2018 10:00:00 -2,5 -3,1 -2,4 0,2 0,9 2,6 32 17 50 27 W 0,1 0 0,2
19.01.2018 09:00:00 -2,6 -3,2 -2,5 0,2 0,9 2,6 33 18 51 28 W 0,1 0 0,3
19.01.2018 08:00:00 -2,6 -3,2 -2,5 0,2 0,9 2,6 33 18 50 27 W 0,1 0 1,4
19.01.2018 07:00:00 -2,6 -3,2 -2,5 0,2 0,9 2,6 28 15 44 24 W 0,1 0 0,4
19.01.2018 06:00:00 -2,3 -2,8 -2,3 0,2 0,9 2,6 21 11 31 17 W 0,1 0 0,0
19.01.2018 05:00:00 -2,3 -2,8 -2,2 0,2 0,9 2,6 16 9 26 14 W 0,1 0 0,6
19.01.2018 04:00:00 -2,0 -2,5 -2,0 0,2 0,9 2,6 15 8 24 13 W 0,1 0 0,5
19.01.2018 03:00:00 -2,0 -2,5 -1,9 0,2 0,9 2,6 11 6 21 11 W 0,1 0 0,1
19.01.2018 02:00:00 -2,0 -2,4 -1,9 0,2 0,9 2,6 14 8 25 14 W 0,1 0 0,0
19.01.2018 01:00:00 -2,0 -2,6 -1,9 0,2 0,9 2,6 18 10 29 16 W 3,0 0 0,0
19.01.2018 00:00:00 -2,0 -2,6 -1,9 0,2 0,9 2,6 18 10 40 21 W 0,6 0 0,0
18.01.2018 23:00:00 -1,9 -2,6 -1,9 0,2 0,9 2,6 20 11 40 22 W 12 0 0,0
18.01.2018 22:00:00 -1,9 -3,2 -1,9 0,2 0,9 2,6 19 11 38 20 W 25 0 0,0
18.01.2018 21:00:00 -1,8 -3,5 -1,8 0,2 0,9 2,6 23 13 41 22 W 35 0 0,0
18.01.2018 20:00:00 -1,5 -3,7 -1,5 0,2 0,9 2,6 26 14 49 26 W 60 0 0,0
18.01.2018 19:00:00 -1,1 -3,9 -1,2 0,2 0,9 2,6 29 16 61 33 W 70 0 0,0
18.01.2018 18:00:00 -0,7 -3,8 -0,8 0,2 0,9 2,6 32 17 71 38 W 70 0 0,0
18.01.2018 17:00:00 -0,2 -4,3 -0,2 0,2 0,9 2,6 39 21 81 44 W 60 4 0,0
18.01.2018 16:00:00 0,2 -3,4 0,2 0,2 0,9 2,6 40 22 84 45 W 60 43 0,0
18.01.2018 15:00:00 1,1 -2,7 1,3 0,2 0,9 2,6 45 24 102 55 W 45 11 0,0
18.01.2018 14:00:00 1,5 -0,2 1,6 0,2 0,9 2,6 66 36 132 72 W 18 1 2,2
18.01.2018 13:00:00 1,3 1,2 1,4 0,2 0,9 2,6 67 36 126 68 WSW 0,5 0 0,1
18.01.2018 12:00:00 0,7 0,7 1,0 0,2 0,9 2,6 83 45 129 69 SW 0,4 0 1,0
18.01.2018 11:00:00 0,0 -0,3 0,0 0,2 0,9 2,6 80 43 117 63 SW 0,1 0 2,5
18.01.2018 10:00:00 -0,9 -1,3 -0,9 0,2 0,9 2,6 68 37 101 55 SSW 0,1 0 2,2
18.01.2018 09:00:00 -1,7 -2,3 -1,7 0,2 0,9 2,6 74 40 109 59 SSW 0,1 0 1,1
18.01.2018 08:00:00 -2,1 -2,7 -2,1 0,2 0,9 2,6 61 33 90 49 S 0,3 0 1,4
18.01.2018 07:00:00 -1,9 -2,5 -1,9 0,2 0,9 2,6 58 32 80 43 SSW 0,3 0 0,9
18.01.2018 06:00:00 -2,2 -2,8 -2,1 0,2 0,9 2,6 45 25 64 35 SSW 0,2 0 0,5
18.01.2018 05:00:00 -2,5 -3,1 -2,5 0,2 0,9 2,6 46 25 66 36 SW 0,2 0 0,2
18.01.2018 04:00:00 -2,7 -3,3 -2,7 0,2 0,9 2,6 48 26 63 34 SW 0,2 0 0,0
18.01.2018 03:00:00 -2,8 -3,4 -2,8 0,2 0,9 2,6 40 22 60 32 SW 0,1 0 0,0
18.01.2018 02:00:00 -3,0 -3,7 -3,0 0,2 0,9 2,6 38 20 59 32 WSW 0,3 0 0,0
18.01.2018 01:00:00 -3,3 -4,1 -3,3 0,2 0,9 2,6 38 20 59 32 WSW 0,6 0 0,0
18.01.2018 00:00:00 -3,3 -4,1 -3,3 0,2 0,9 2,6 37 20 53 28 SW 0,3 0 0,0
17.01.2018 23:00:00 -3,3 -4,0 -3,3 0,2 0,9 2,6 27 15 43 23 WSW 0,1 0 0,0
17.01.2018 22:00:00 -3,4 -4,1 -3,4 0,2 0,9 2,6 29 16 45 25 W 0,1 0 0,0
17.01.2018 21:00:00 -3,5 -4,2 -3,5 0,2 0,9 2,6 28 15 60 33 W 0,1 0 0,0
17.01.2018 20:00:00 -3,5 -4,3 -3,4 0,2 0,9 2,6 34 18 61 33 W 0,1 0 0,0
17.01.2018 19:00:00 -3,3 -4,1 -3,3 0,2 0,9 2,6 36 19 62 34 W 0,2 0 3,3
17.01.2018 18:00:00 -3,3 -4,1 -3,2 0,2 0,9 2,6 34 18 61 33 W 0,1 0 1,3
17.01.2018 17:00:00 -3,5 -4,2 -3,4 0,2 0,9 2,6 34 18 58 31 WSW 0,1 0 0,3
17.01.2018 16:00:00 -3,5 -4,3 -3,4 0,2 0,9 2,6 36 19 58 31 WSW 0,2 0 0,2
17.01.2018 15:00:00 -3,8 -4,6 -3,7 0,2 0,9 2,6 33 18 51 28 W 0,2 0 0,1
17.01.2018 14:00:00 -4,1 -5,0 -4,0 0,2 0,9 2,6 28 15 77 41 W 0,4 0 0,1
17.01.2018 13:00:00 -4,2 -5,0 -4,1 0,2 0,9 2,6 29 16 52 28 W 0,2 0 0,1
17.01.2018 12:00:00 -4,0 -4,9 -3,9 0,2 0,9 2,6 31 17 51 27 W 0,3 0 0,0
17.01.2018 11:00:00 -4,0 -4,8 -3,9 0,2 0,9 2,6 26 14 51 28 W 0,5 0 0,1
17.01.2018 10:00:00 -3,9 -4,7 -3,8 0,2 0,9 2,6 35 19 61 33 W 0,3 0 3,4
17.01.2018 09:00:00 -3,5 -4,4 -3,4 0,2 0,9 2,6 45 24 58 32 WSW 0,1 0 0,1
17.01.2018 08:00:00 -3,4 -4,1 -3,4 0,2 0,9 2,6 27 15 55 30 W 0,2 0 0,4
17.01.2018 07:00:00 -2,9 -3,6 -2,9 0,2 0,9 2,6 26 14 53 29 W 0,4 0 0,0
17.01.2018 06:00:00 -2,7 -3,3 -2,6 0,2 0,9 2,6 31 17 58 32 W 0,2 0 1,3
17.01.2018 05:00:00 -2,3 -2,9 -2,3 0,2 0,9 2,6 33 18 52 28 WSW 0,3 0 1,8
17.01.2018 04:00:00 -2,3 -3,0 -2,3 0,2 0,9 2,6 28 15 45 25 SW 0,4 0 0,7
17.01.2018 03:00:00 -2,5 -3,0 -2,5 0,2 0,9 2,6 35 19 48 26 SW 0,4 0 0,0
17.01.2018 02:00:00 -2,6 -3,3 -2,5 0,2 0,9 2,6 33 18 45 24 SW 0,4 0 0,0
17.01.2018 01:00:00 -2,7 -3,3 -2,6 0,2 0,9 2,6 33 18 44 24 SW 0,2 0 0,0
17.01.2018 00:00:00 -2,8 -3,5 -2,8 0,2 0,9 2,6 19 11 41 22 WSW 0,2 0 0,0
16.01.2018 23:00:00 -3,0 -3,7 -2,9 0,2 0,9 2,6 23 12 45 24 W 0,5 0 0,2
16.01.2018 22:00:00 -3,0 -3,6 -2,9 0,2 0,9 2,6 27 14 50 27 W 0,2 0 1,4
16.01.2018 21:00:00 -2,8 -3,4 -2,7 0,2 0,9 2,6 23 13 53 28 W 0,3 0 0,4
16.01.2018 20:00:00 -2,5 -3,0 -2,4 0,2 0,9 2,6 18 10 42 23 W 0,2 0 0,0
16.01.2018 19:00:00 -2,6 -3,2 -2,5 0,2 0,9 2,6 24 13 53 28 W 0,2 0 0,0
16.01.2018 18:00:00 -2,7 -3,3 -2,6 0,2 0,9 2,6 28 15 55 30 W 0,2 0 1,4
16.01.2018 17:00:00 -2,5 -3,0 -2,5 0,2 0,9 2,6 29 15 61 33 WNW 0,1 0 1,6
16.01.2018 16:00:00 -2,1 -2,7 -2,0 0,2 0,9 2,6 32 18 63 34 WNW 0,3 0 0,1
16.01.2018 15:00:00 -2,0 -2,4 -1,9 0,2 0,9 2,6 29 16 77 41 WNW 0,3 0 2,0
16.01.2018 14:00:00 -0,8 -1,3 -0,8 0,2 0,9 2,6 41 22 76 41 W 0,6 0 0,1
16.01.2018 13:00:00 0,3 -0,1 0,4 0,2 0,9 2,6 54 29 71 38 SW 0,4 0 0,0
16.01.2018 12:00:00 0,3 -0,1 0,3 0,2 0,9 2,6 48 26 68 37 WSW 0,2 0 0,3
16.01.2018 11:00:00 0,1 -0,4 0,1 0,2 0,9 2,6 46 25 62 33 SW 0,2 0 0,1
16.01.2018 10:00:00 0,0 -0,3 0,0 0,2 0,9 2,6 34 18 52 28 WSW 0,3 0 0,5
16.01.2018 09:00:00 0,2 -0,1 0,1 0,2 0,9 2,6 41 22 66 36 WSW 0,2 0 1,1
16.01.2018 08:00:00 0,0 -0,2 0,0 0,2 0,9 2,6 40 21 64 34 SW 0,2 0 0,2
16.01.2018 07:00:00 0,2 0,0 0,2 0,2 0,9 2,6 43 23 68 37 SW 0,3 0 0,0
16.01.2018 06:00:00 0,5 0,1 0,5 0,2 0,9 2,6 48 26 70 38 SW 0,4 0 0,2
16.01.2018 05:00:00 0,7 0,4 0,7 0,2 0,9 2,6 41 22 65 35 WSW 0,2 0 0,5
16.01.2018 04:00:00 0,5 0,3 0,3 0,2 0,9 2,6 44 24 77 42 WSW 0,3 0 1,3
16.01.2018 03:00:00 0,4 0,4 0,6 0,2 0,9 2,6 45 25 72 39 SW 0,1 0 1,1
16.01.2018 02:00:00 0,0 -0,1 0,0 0,2 0,9 2,6 50 27 75 40 SSW 0,3 0 1,7
16.01.2018 01:00:00 -0,4 -0,5 -0,4 0,2 0,9 2,6 59 32 76 41 SSW 0,4 0 0,7
16.01.2018 00:00:00 -1,0 -1,3 -1,0 0,2 0,9 2,6 59 32 82 45 S 0,3 0 0,7
15.01.2018 23:00:00 -1,3 -1,7 -1,2 0,2 0,9 2,6 66 36 83 45 S 0,2 0 0,7
15.01.2018 22:00:00 -1,0 -1,4 -1,0 0,2 0,9 2,6 62 34 90 48 S 0,2 0 0,7
15.01.2018 21:00:00 -0,9 -1,3 -0,9 0,2 0,9 2,6 62 34 85 46 S 0,2 0 0,4
15.01.2018 20:00:00 -0,8 -1,2 -0,8 0,2 0,9 2,6 58 31 76 41 S 0,3 0 0,2
15.01.2018 19:00:00 -1,6 -2,1 -1,5 0,2 0,9 2,6 60 33 71 39 S 0,2 0 0,2
15.01.2018 18:00:00 -2,1 -2,7 -2,0 0,2 0,9 2,6 54 29 68 37 S 0,4 0 0,0
15.01.2018 17:00:00 -2,2 -2,8 -2,1 0,1 0,9 2,6 51 28 65 35 S 0,7 0 0,1
15.01.2018 16:00:00 -2,4 -3,0 -2,3 0,2 0,9 2,6 53 29 67 36 S 0,7 0 0,0
15.01.2018 15:00:00 -2,8 -3,4 -2,6 0,1 0,9 2,6 50 27 60 32 S 0,7 0 0,2
15.01.2018 14:00:00 -2,7 -3,5 -2,5 0,1 0,9 2,6 46 25 55 30 S 5 0 0,0
15.01.2018 13:00:00 -2,8 -3,6 -2,4 0,1 0,9 2,6 46 25 53 29 S 7 0 0,0
15.01.2018 12:00:00 -2,8 -3,7 -2,5 0,1 0,9 2,6 38 20 50 27 S 4,0 0 0,0
15.01.2018 11:00:00 -3,5 -4,2 -3,1 0,1 0,9 2,6 38 21 56 30 S 0,4 0 0,0
15.01.2018 10:00:00 -3,5 -4,2 -3,1 0,1 0,9 2,6 42 23 53 28 S 0,5 0 0,0
15.01.2018 09:00:00 -3,8 -4,7 -3,3 0,1 0,9 2,6 23 12 36 19 SSE 6 0 0,0
15.01.2018 08:00:00 -4,1 -5,0 -3,7 0,2 0,9 2,6 24 13 43 23 SSE 5 0 0,0
15.01.2018 07:00:00 -4,7 -5,6 -5,1 0,2 0,9 2,6 36 19 44 24 SSE 4,0 0 0,0
15.01.2018 06:00:00 -4,2 -5,1 -4,0 0,2 0,9 2,6 31 17 42 23 SSE 7 0 0,0
15.01.2018 05:00:00 -4,4 -5,4 -4,2 0,2 0,9 2,6 30 16 42 23 SSE 6 0 -
15.01.2018 04:00:00 -5,1 -5,8 -5,3 0,2 0,9 2,6 30 16 49 26 SSE 5 0 0,0

tt = Température de l'air
td = dewpoint
tt 5cm = Température de l'air 5cm
tt -5cm = Température de l'air -5cm
tt -20cm = Température de l'air -20cm
tt -100cm = Température de l'air -100cm
ff = Vitesse du vent
fx = gusts
dd = Direction du vent
vv = visibility
sd = Ensoleillement
rr = Quantités de précipitations

stations d'obs. à proximité